sensor_id;sensor_type;location;lat;lon;timestamp;temperature;humidity
61374;DHT22;47242;48.158;-1.586;2023-05-07T04:31:20;17.00;78.80
61374;DHT22;47242;48.158;-1.586;2023-05-07T04:33:56;17.00;78.40
61374;DHT22;47242;48.158;-1.586;2023-05-07T04:36:39;17.00;78.40
61374;DHT22;47242;48.158;-1.586;2023-05-07T04:39:25;17.00;78.90
61374;DHT22;47242;48.158;-1.586;2023-05-07T04:42:06;17.00;78.70
61374;DHT22;47242;48.158;-1.586;2023-05-07T04:44:35;17.00;78.60
61374;DHT22;47242;48.158;-1.586;2023-05-07T04:47:02;17.00;78.30
61374;DHT22;47242;48.158;-1.586;2023-05-07T04:49:28;17.00;78.30
61374;DHT22;47242;48.158;-1.586;2023-05-07T04:51:56;17.00;78.70
61374;DHT22;47242;48.158;-1.586;2023-05-07T04:54:22;17.00;78.90
61374;DHT22;47242;48.158;-1.586;2023-05-07T04:56:58;17.00;78.60
61374;DHT22;47242;48.158;-1.586;2023-05-07T04:59:26;17.00;78.30
61374;DHT22;47242;48.158;-1.586;2023-05-07T05:01:51;17.00;78.50
61374;DHT22;47242;48.158;-1.586;2023-05-07T05:04:25;17.00;78.40
61374;DHT22;47242;48.158;-1.586;2023-05-07T05:06:57;17.00;78.40
61374;DHT22;47242;48.158;-1.586;2023-05-07T05:09:28;17.00;78.40
61374;DHT22;47242;48.158;-1.586;2023-05-07T05:12:15;17.00;78.60
61374;DHT22;47242;48.158;-1.586;2023-05-07T05:14:55;17.00;78.70
61374;DHT22;47242;48.158;-1.586;2023-05-07T05:17:34;17.00;78.30
61374;DHT22;47242;48.158;-1.586;2023-05-07T05:20:02;17.00;78.20
61374;DHT22;47242;48.158;-1.586;2023-05-07T05:22:49;17.00;78.30
61374;DHT22;47242;48.158;-1.586;2023-05-07T05:25:41;17.00;78.10
61374;DHT22;47242;48.158;-1.586;2023-05-07T05:28:21;17.10;78.10
61374;DHT22;47242;48.158;-1.586;2023-05-07T05:31:09;17.00;78.00
61374;DHT22;47242;48.158;-1.586;2023-05-07T05:34:01;17.00;78.10
61374;DHT22;47242;48.158;-1.586;2023-05-07T05:36:52;17.10;77.90
61374;DHT22;47242;48.158;-1.586;2023-05-07T05:39:49;17.10;78.10
61374;DHT22;47242;48.158;-1.586;2023-05-07T05:46:04;17.10;77.90
61374;DHT22;47242;48.158;-1.586;2023-05-07T05:48:44;17.10;78.00
61374;DHT22;47242;48.158;-1.586;2023-05-07T05:51:28;17.20;77.80
61374;DHT22;47242;48.158;-1.586;2023-05-07T05:56:57;17.20;77.70
61374;DHT22;47242;48.158;-1.586;2023-05-07T05:59:45;17.20;78.10
61374;DHT22;47242;48.158;-1.586;2023-05-07T06:02:22;17.30;77.50
61374;DHT22;47242;48.158;-1.586;2023-05-07T06:04:58;17.30;77.80
61374;DHT22;47242;48.158;-1.586;2023-05-07T06:07:24;17.40;77.30
61374;DHT22;47242;48.158;-1.586;2023-05-07T06:09:49;17.50;77.50
61374;DHT22;47242;48.158;-1.586;2023-05-07T06:12:15;17.50;77.40
61374;DHT22;47242;48.158;-1.586;2023-05-07T06:14:43;17.50;77.80
61374;DHT22;47242;48.158;-1.586;2023-05-07T06:17:08;17.50;77.50
61374;DHT22;47242;48.158;-1.586;2023-05-07T06:19:34;17.50;77.40
61374;DHT22;47242;48.158;-1.586;2023-05-07T06:22:00;17.50;77.50
61374;DHT22;47242;48.158;-1.586;2023-05-07T06:24:27;17.50;77.40
61374;DHT22;47242;48.158;-1.586;2023-05-07T06:26:52;17.40;77.70
61374;DHT22;47242;48.158;-1.586;2023-05-07T06:29:18;17.40;77.90
61374;DHT22;47242;48.158;-1.586;2023-05-07T06:31:44;17.40;77.80
61374;DHT22;47242;48.158;-1.586;2023-05-07T06:34:10;17.40;77.60
61374;DHT22;47242;48.158;-1.586;2023-05-07T06:36:35;17.30;78.00
61374;DHT22;47242;48.158;-1.586;2023-05-07T06:39:01;17.30;78.00
61374;DHT22;47242;48.158;-1.586;2023-05-07T06:41:27;17.30;78.10
61374;DHT22;47242;48.158;-1.586;2023-05-07T06:43:52;17.30;78.30
61374;DHT22;47242;48.158;-1.586;2023-05-07T06:49:10;17.30;78.60
61374;DHT22;47242;48.158;-1.586;2023-05-07T06:51:36;17.30;78.10
61374;DHT22;47242;48.158;-1.586;2023-05-07T06:54:02;17.40;78.30
61374;DHT22;47242;48.158;-1.586;2023-05-07T06:56:30;17.30;78.00
61374;DHT22;47242;48.158;-1.586;2023-05-07T06:58:55;17.30;78.00
61374;DHT22;47242;48.158;-1.586;2023-05-07T07:01:23;17.40;77.90
61374;DHT22;47242;48.158;-1.586;2023-05-07T07:03:49;17.40;78.00
61374;DHT22;47242;48.158;-1.586;2023-05-07T07:06:14;17.40;77.90
61374;DHT22;47242;48.158;-1.586;2023-05-07T07:08:40;17.50;78.20
61374;DHT22;47242;48.158;-1.586;2023-05-07T07:11:08;17.50;78.00
61374;DHT22;47242;48.158;-1.586;2023-05-07T07:13:33;17.50;78.20
61374;DHT22;47242;48.158;-1.586;2023-05-07T07:16:00;17.60;77.90
61374;DHT22;47242;48.158;-1.586;2023-05-07T07:18:25;17.60;77.80
61374;DHT22;47242;48.158;-1.586;2023-05-07T07:20:51;17.70;77.90
61374;DHT22;47242;48.158;-1.586;2023-05-07T07:23:17;17.80;77.90
61374;DHT22;47242;48.158;-1.586;2023-05-07T07:25:43;17.80;77.40
61374;DHT22;47242;48.158;-1.586;2023-05-07T07:28:08;17.80;77.20
61374;DHT22;47242;48.158;-1.586;2023-05-07T07:30:34;17.80;77.20
61374;DHT22;47242;48.158;-1.586;2023-05-07T07:33:00;17.80;76.90
61374;DHT22;47242;48.158;-1.586;2023-05-07T07:35:34;17.90;77.40
61374;DHT22;47242;48.158;-1.586;2023-05-07T07:38:00;17.80;77.20
61374;DHT22;47242;48.158;-1.586;2023-05-07T07:40:27;17.90;77.00
61374;DHT22;47242;48.158;-1.586;2023-05-07T07:42:53;18.00;77.10
61374;DHT22;47242;48.158;-1.586;2023-05-07T07:45:19;18.10;76.70
61374;DHT22;47242;48.158;-1.586;2023-05-07T07:47:45;18.30;76.60
61374;DHT22;47242;48.158;-1.586;2023-05-07T07:50:11;18.40;76.00
61374;DHT22;47242;48.158;-1.586;2023-05-07T07:52:37;18.40;75.80
61374;DHT22;47242;48.158;-1.586;2023-05-07T07:55:03;18.50;75.80
61374;DHT22;47242;48.158;-1.586;2023-05-07T07:57:28;18.50;75.60
61374;DHT22;47242;48.158;-1.586;2023-05-07T07:59:54;18.60;75.60
61374;DHT22;47242;48.158;-1.586;2023-05-07T08:02:20;18.80;75.30
61374;DHT22;47242;48.158;-1.586;2023-05-07T08:04:46;18.90;75.00
61374;DHT22;47242;48.158;-1.586;2023-05-07T08:07:12;18.80;74.80
61374;DHT22;47242;48.158;-1.586;2023-05-07T08:09:38;18.80;75.00
61374;DHT22;47242;48.158;-1.586;2023-05-07T08:12:07;18.80;75.00
61374;DHT22;47242;48.158;-1.586;2023-05-07T08:14:34;18.80;75.20
61374;DHT22;47242;48.158;-1.586;2023-05-07T08:17:00;18.90;74.60
61374;DHT22;47242;48.158;-1.586;2023-05-07T08:19:26;19.10;74.10
61374;DHT22;47242;48.158;-1.586;2023-05-07T08:21:51;19.30;73.60
61374;DHT22;47242;48.158;-1.586;2023-05-07T08:24:17;19.20;73.50
61374;DHT22;47242;48.158;-1.586;2023-05-07T08:26:44;19.10;74.20
61374;DHT22;47242;48.158;-1.586;2023-05-07T08:29:10;18.90;74.50
61374;DHT22;47242;48.158;-1.586;2023-05-07T08:31:36;18.90;74.60
61374;DHT22;47242;48.158;-1.586;2023-05-07T08:34:08;19.00;74.50
61374;DHT22;47242;48.158;-1.586;2023-05-07T08:36:34;19.10;74.10
61374;DHT22;47242;48.158;-1.586;2023-05-07T08:39:00;19.20;73.50
61374;DHT22;47242;48.158;-1.586;2023-05-07T08:41:26;19.50;72.80
61374;DHT22;47242;48.158;-1.586;2023-05-07T08:43:52;19.80;72.00
61374;DHT22;47242;48.158;-1.586;2023-05-07T08:46:20;20.30;70.80
61374;DHT22;47242;48.158;-1.586;2023-05-07T08:48:50;21.80;68.60
61374;DHT22;47242;48.158;-1.586;2023-05-07T08:51:18;24.00;63.50
61374;DHT22;47242;48.158;-1.586;2023-05-07T08:53:44;26.10;57.50
61374;DHT22;47242;48.158;-1.586;2023-05-07T08:56:10;25.60;56.50
61374;DHT22;47242;48.158;-1.586;2023-05-07T08:58:36;25.50;55.60
61374;DHT22;47242;48.158;-1.586;2023-05-07T09:01:20;24.60;57.40
61374;DHT22;47242;48.158;-1.586;2023-05-07T09:03:46;23.70;59.10
61374;DHT22;47242;48.158;-1.586;2023-05-07T09:06:12;23.20;60.30
61374;DHT22;47242;48.158;-1.586;2023-05-07T09:08:38;22.70;61.40
61374;DHT22;47242;48.158;-1.586;2023-05-07T09:11:03;22.30;62.80
61374;DHT22;47242;48.158;-1.586;2023-05-07T09:13:29;21.90;64.00
61374;DHT22;47242;48.158;-1.586;2023-05-07T09:15:55;21.60;64.90
61374;DHT22;47242;48.158;-1.586;2023-05-07T09:18:23;21.30;65.50
61374;DHT22;47242;48.158;-1.586;2023-05-07T09:20:48;21.20;65.80
61374;DHT22;47242;48.158;-1.586;2023-05-07T09:23:14;21.10;66.20
61374;DHT22;47242;48.158;-1.586;2023-05-07T09:25:40;21.40;65.50
61374;DHT22;47242;48.158;-1.586;2023-05-07T09:28:06;21.70;65.50
61374;DHT22;47242;48.158;-1.586;2023-05-07T09:30:33;21.80;64.20
61374;DHT22;47242;48.158;-1.586;2023-05-07T09:33:00;21.60;64.10
61374;DHT22;47242;48.158;-1.586;2023-05-07T09:35:26;21.40;64.70
61374;DHT22;47242;48.158;-1.586;2023-05-07T09:37:59;21.30;64.90
61374;DHT22;47242;48.158;-1.586;2023-05-07T09:40:26;21.30;65.40
61374;DHT22;47242;48.158;-1.586;2023-05-07T09:42:53;21.50;64.60
61374;DHT22;47242;48.158;-1.586;2023-05-07T09:45:25;21.50;64.00
61374;DHT22;47242;48.158;-1.586;2023-05-07T09:47:54;21.50;64.90
61374;DHT22;47242;48.158;-1.586;2023-05-07T09:50:26;21.30;65.00
61374;DHT22;47242;48.158;-1.586;2023-05-07T09:52:54;21.30;65.00
61374;DHT22;47242;48.158;-1.586;2023-05-07T09:55:20;21.30;65.10
61374;DHT22;47242;48.158;-1.586;2023-05-07T09:57:49;21.20;65.60
61374;DHT22;47242;48.158;-1.586;2023-05-07T10:00:15;21.20;65.30
61374;DHT22;47242;48.158;-1.586;2023-05-07T10:02:43;21.30;65.70
61374;DHT22;47242;48.158;-1.586;2023-05-07T10:05:14;21.50;65.20
61374;DHT22;47242;48.158;-1.586;2023-05-07T10:07:40;21.60;65.00
61374;DHT22;47242;48.158;-1.586;2023-05-07T10:10:07;21.50;64.80
61374;DHT22;47242;48.158;-1.586;2023-05-07T10:12:33;21.40;64.90
61374;DHT22;47242;48.158;-1.586;2023-05-07T10:15:08;21.30;65.50
61374;DHT22;47242;48.158;-1.586;2023-05-07T10:17:38;21.00;65.60
61374;DHT22;47242;48.158;-1.586;2023-05-07T10:20:05;20.80;66.20
61374;DHT22;47242;48.158;-1.586;2023-05-07T10:22:43;20.70;66.10
61374;DHT22;47242;48.158;-1.586;2023-05-07T10:25:31;20.60;66.90
61374;DHT22;47242;48.158;-1.586;2023-05-07T10:28:00;20.40;66.90
61374;DHT22;47242;48.158;-1.586;2023-05-07T10:33:01;20.40;67.50
61374;DHT22;47242;48.158;-1.586;2023-05-07T10:35:32;20.40;66.90
61374;DHT22;47242;48.158;-1.586;2023-05-07T10:38:02;20.40;67.00
61374;DHT22;47242;48.158;-1.586;2023-05-07T10:40:27;20.50;66.90
61374;DHT22;47242;48.158;-1.586;2023-05-07T10:42:59;20.50;67.20
61374;DHT22;47242;48.158;-1.586;2023-05-07T10:45:26;20.50;66.80
61374;DHT22;47242;48.158;-1.586;2023-05-07T10:50:37;20.70;66.80
61374;DHT22;47242;48.158;-1.586;2023-05-07T10:55:48;20.80;66.80
61374;DHT22;47242;48.158;-1.586;2023-05-07T10:58:24;20.80;65.90
61374;DHT22;47242;48.158;-1.586;2023-05-07T11:00:56;20.80;65.00
61374;DHT22;47242;48.158;-1.586;2023-05-07T11:03:22;20.80;65.80
61374;DHT22;47242;48.158;-1.586;2023-05-07T11:06:11;21.00;65.60
61374;DHT22;47242;48.158;-1.586;2023-05-07T11:09:03;21.20;64.70
61374;DHT22;47242;48.158;-1.586;2023-05-07T11:11:44;21.50;63.60
61374;DHT22;47242;48.158;-1.586;2023-05-07T11:14:11;21.80;63.00
61374;DHT22;47242;48.158;-1.586;2023-05-07T11:16:37;22.10;62.10
61374;DHT22;47242;48.158;-1.586;2023-05-07T11:19:05;22.30;61.70
61374;DHT22;47242;48.158;-1.586;2023-05-07T11:24:02;22.10;62.00
61374;DHT22;47242;48.158;-1.586;2023-05-07T11:26:29;22.00;62.10
61374;DHT22;47242;48.158;-1.586;2023-05-07T11:28:56;22.00;62.00
61374;DHT22;47242;48.158;-1.586;2023-05-07T11:31:25;22.10;61.70
61374;DHT22;47242;48.158;-1.586;2023-05-07T11:33:52;22.20;60.70
61374;DHT22;47242;48.158;-1.586;2023-05-07T11:36:18;22.10;60.80
61374;DHT22;47242;48.158;-1.586;2023-05-07T11:38:45;22.10;60.60
61374;DHT22;47242;48.158;-1.586;2023-05-07T11:41:10;22.00;60.00
61374;DHT22;47242;48.158;-1.586;2023-05-07T11:43:36;22.10;60.40
61374;DHT22;47242;48.158;-1.586;2023-05-07T11:46:10;22.10;60.10
61374;DHT22;47242;48.158;-1.586;2023-05-07T11:48:36;22.20;60.30
61374;DHT22;47242;48.158;-1.586;2023-05-07T11:51:04;22.30;60.40
61374;DHT22;47242;48.158;-1.586;2023-05-07T11:53:38;22.30;59.30
61374;DHT22;47242;48.158;-1.586;2023-05-07T11:56:11;22.30;59.60
61374;DHT22;47242;48.158;-1.586;2023-05-07T11:58:37;22.50;59.70
61374;DHT22;47242;48.158;-1.586;2023-05-07T12:01:03;22.60;59.30
61374;DHT22;47242;48.158;-1.586;2023-05-07T12:03:29;22.70;59.30
61374;DHT22;47242;48.158;-1.586;2023-05-07T12:05:55;22.80;59.30
61374;DHT22;47242;48.158;-1.586;2023-05-07T12:08:21;22.80;58.90
61374;DHT22;47242;48.158;-1.586;2023-05-07T12:10:48;22.80;58.80
61374;DHT22;47242;48.158;-1.586;2023-05-07T12:13:22;22.80;59.10
61374;DHT22;47242;48.158;-1.586;2023-05-07T12:15:52;22.70;59.20
61374;DHT22;47242;48.158;-1.586;2023-05-07T12:18:18;22.70;58.90
61374;DHT22;47242;48.158;-1.586;2023-05-07T12:20:44;22.70;58.70
61374;DHT22;47242;48.158;-1.586;2023-05-07T12:23:10;22.80;59.50
61374;DHT22;47242;48.158;-1.586;2023-05-07T12:25:37;22.70;58.80
61374;DHT22;47242;48.158;-1.586;2023-05-07T12:28:04;22.60;58.70
61374;DHT22;47242;48.158;-1.586;2023-05-07T12:30:37;22.70;59.30
61374;DHT22;47242;48.158;-1.586;2023-05-07T12:33:02;22.80;58.40
61374;DHT22;47242;48.158;-1.586;2023-05-07T12:35:32;22.80;58.50
61374;DHT22;47242;48.158;-1.586;2023-05-07T12:38:01;22.90;58.40
61374;DHT22;47242;48.158;-1.586;2023-05-07T12:40:41;22.90;57.80
61374;DHT22;47242;48.158;-1.586;2023-05-07T12:43:07;23.00;57.40
61374;DHT22;47242;48.158;-1.586;2023-05-07T12:45:37;23.00;57.60
61374;DHT22;47242;48.158;-1.586;2023-05-07T12:48:06;22.90;56.80
61374;DHT22;47242;48.158;-1.586;2023-05-07T12:50:33;23.00;56.90
61374;DHT22;47242;48.158;-1.586;2023-05-07T12:52:59;23.00;57.30
61374;DHT22;47242;48.158;-1.586;2023-05-07T12:55:25;23.10;57.50
61374;DHT22;47242;48.158;-1.586;2023-05-07T12:57:52;23.20;57.10
61374;DHT22;47242;48.158;-1.586;2023-05-07T13:00:35;23.20;56.70
61374;DHT22;47242;48.158;-1.586;2023-05-07T13:03:01;23.30;57.20
61374;DHT22;47242;48.158;-1.586;2023-05-07T13:05:27;23.60;55.80
61374;DHT22;47242;48.158;-1.586;2023-05-07T13:07:54;23.60;56.00
61374;DHT22;47242;48.158;-1.586;2023-05-07T13:10:20;23.60;55.70
61374;DHT22;47242;48.158;-1.586;2023-05-07T13:12:45;23.70;56.80
61374;DHT22;47242;48.158;-1.586;2023-05-07T13:15:11;23.70;56.10
61374;DHT22;47242;48.158;-1.586;2023-05-07T13:17:36;23.80;55.90
61374;DHT22;47242;48.158;-1.586;2023-05-07T13:20:02;23.80;56.60
61374;DHT22;47242;48.158;-1.586;2023-05-07T13:22:28;23.70;57.00
61374;DHT22;47242;48.158;-1.586;2023-05-07T13:24:54;23.70;56.30
61374;DHT22;47242;48.158;-1.586;2023-05-07T13:27:19;23.60;56.60
61374;DHT22;47242;48.158;-1.586;2023-05-07T13:29:45;23.60;55.60
61374;DHT22;47242;48.158;-1.586;2023-05-07T13:32:11;23.60;56.30
61374;DHT22;47242;48.158;-1.586;2023-05-07T13:34:36;23.60;55.00
61374;DHT22;47242;48.158;-1.586;2023-05-07T13:37:02;23.70;55.10
61374;DHT22;47242;48.158;-1.586;2023-05-07T13:39:28;23.80;55.10
61374;DHT22;47242;48.158;-1.586;2023-05-07T13:41:53;24.00;56.30
61374;DHT22;47242;48.158;-1.586;2023-05-07T13:44:19;24.00;55.70
61374;DHT22;47242;48.158;-1.586;2023-05-07T13:46:45;23.80;54.40
61374;DHT22;47242;48.158;-1.586;2023-05-07T13:49:10;23.90;55.70
61374;DHT22;47242;48.158;-1.586;2023-05-07T13:51:37;23.90;55.40
61374;DHT22;47242;48.158;-1.586;2023-05-07T13:54:03;23.80;54.50
61374;DHT22;47242;48.158;-1.586;2023-05-07T13:56:29;23.70;54.70
61374;DHT22;47242;48.158;-1.586;2023-05-07T13:58:57;23.80;55.00
61374;DHT22;47242;48.158;-1.586;2023-05-07T14:01:23;23.70;54.50
61374;DHT22;47242;48.158;-1.586;2023-05-07T14:03:49;23.50;55.50
61374;DHT22;47242;48.158;-1.586;2023-05-07T14:06:14;23.30;55.00
61374;DHT22;47242;48.158;-1.586;2023-05-07T14:08:40;23.10;55.20
61374;DHT22;47242;48.158;-1.586;2023-05-07T14:11:06;22.90;55.30
61374;DHT22;47242;48.158;-1.586;2023-05-07T14:13:31;22.90;56.70
61374;DHT22;47242;48.158;-1.586;2023-05-07T14:15:58;22.70;56.20
61374;DHT22;47242;48.158;-1.586;2023-05-07T14:18:23;22.60;57.00
61374;DHT22;47242;48.158;-1.586;2023-05-07T14:20:49;22.70;57.50
61374;DHT22;47242;48.158;-1.586;2023-05-07T14:23:15;22.70;57.20
61374;DHT22;47242;48.158;-1.586;2023-05-07T14:25:42;22.70;57.60
61374;DHT22;47242;48.158;-1.586;2023-05-07T14:28:08;22.70;57.60
61374;DHT22;47242;48.158;-1.586;2023-05-07T14:30:34;22.70;57.30
61374;DHT22;47242;48.158;-1.586;2023-05-07T14:33:00;22.70;57.40
61374;DHT22;47242;48.158;-1.586;2023-05-07T14:35:26;22.70;56.90
61374;DHT22;47242;48.158;-1.586;2023-05-07T14:37:51;22.80;57.00
61374;DHT22;47242;48.158;-1.586;2023-05-07T14:40:17;22.80;56.10
61374;DHT22;47242;48.158;-1.586;2023-05-07T14:42:42;22.70;56.50
61374;DHT22;47242;48.158;-1.586;2023-05-07T14:45:09;22.80;56.40
61374;DHT22;47242;48.158;-1.586;2023-05-07T14:47:34;22.70;56.20
61374;DHT22;47242;48.158;-1.586;2023-05-07T14:50:00;22.70;56.60
61374;DHT22;47242;48.158;-1.586;2023-05-07T14:52:26;22.70;56.90
61374;DHT22;47242;48.158;-1.586;2023-05-07T14:54:52;22.60;57.50
61374;DHT22;47242;48.158;-1.586;2023-05-07T14:57:18;22.60;56.80
61374;DHT22;47242;48.158;-1.586;2023-05-07T14:59:44;22.60;56.30
61374;DHT22;47242;48.158;-1.586;2023-05-07T15:02:11;22.70;56.30
61374;DHT22;47242;48.158;-1.586;2023-05-07T15:04:37;22.70;56.10
61374;DHT22;47242;48.158;-1.586;2023-05-07T15:07:12;22.70;55.50
61374;DHT22;47242;48.158;-1.586;2023-05-07T15:09:43;22.80;55.80
61374;DHT22;47242;48.158;-1.586;2023-05-07T15:12:09;22.90;56.00
61374;DHT22;47242;48.158;-1.586;2023-05-07T15:14:35;23.20;55.80
61374;DHT22;47242;48.158;-1.586;2023-05-07T15:17:00;23.20;55.60
61374;DHT22;47242;48.158;-1.586;2023-05-07T15:19:26;23.20;54.50
61374;DHT22;47242;48.158;-1.586;2023-05-07T15:21:56;23.00;55.20
61374;DHT22;47242;48.158;-1.586;2023-05-07T15:24:23;22.90;56.10
61374;DHT22;47242;48.158;-1.586;2023-05-07T15:26:48;22.80;55.90
61374;DHT22;47242;48.158;-1.586;2023-05-07T15:29:14;22.80;55.70
61374;DHT22;47242;48.158;-1.586;2023-05-07T15:31:40;22.70;56.30
61374;DHT22;47242;48.158;-1.586;2023-05-07T15:34:06;22.70;55.50
61374;DHT22;47242;48.158;-1.586;2023-05-07T15:36:31;22.50;55.80
61374;DHT22;47242;48.158;-1.586;2023-05-07T15:38:57;22.50;55.40
61374;DHT22;47242;48.158;-1.586;2023-05-07T15:41:24;22.40;55.80
61374;DHT22;47242;48.158;-1.586;2023-05-07T15:43:51;22.30;56.50
61374;DHT22;47242;48.158;-1.586;2023-05-07T15:46:21;22.20;56.00
61374;DHT22;47242;48.158;-1.586;2023-05-07T15:48:50;22.00;56.60
61374;DHT22;47242;48.158;-1.586;2023-05-07T15:51:16;21.90;57.20
61374;DHT22;47242;48.158;-1.586;2023-05-07T15:53:45;21.90;57.60
61374;DHT22;47242;48.158;-1.586;2023-05-07T15:56:11;22.00;57.80
61374;DHT22;47242;48.158;-1.586;2023-05-07T15:58:37;21.90;57.20
61374;DHT22;47242;48.158;-1.586;2023-05-07T16:01:04;22.00;57.60
61374;DHT22;47242;48.158;-1.586;2023-05-07T16:03:30;22.00;57.50
61374;DHT22;47242;48.158;-1.586;2023-05-07T16:05:56;22.10;57.40
61374;DHT22;47242;48.158;-1.586;2023-05-07T16:08:25;22.20;57.10
61374;DHT22;47242;48.158;-1.586;2023-05-07T16:10:51;22.10;57.00
61374;DHT22;47242;48.158;-1.586;2023-05-07T16:13:17;22.10;57.50
61374;DHT22;47242;48.158;-1.586;2023-05-07T16:15:47;22.00;57.30
61374;DHT22;47242;48.158;-1.586;2023-05-07T16:18:13;22.00;57.60
61374;DHT22;47242;48.158;-1.586;2023-05-07T16:20:42;21.90;58.00
61374;DHT22;47242;48.158;-1.586;2023-05-07T16:23:08;21.80;58.30
61374;DHT22;47242;48.158;-1.586;2023-05-07T16:25:34;21.80;58.40
61374;DHT22;47242;48.158;-1.586;2023-05-07T16:28:00;21.90;58.20
61374;DHT22;47242;48.158;-1.586;2023-05-07T16:30:26;22.00;58.10
61374;DHT22;47242;48.158;-1.586;2023-05-07T16:32:51;22.00;57.80
61374;DHT22;47242;48.158;-1.586;2023-05-07T16:35:17;22.00;57.80
61374;DHT22;47242;48.158;-1.586;2023-05-07T16:37:43;21.90;57.90
61374;DHT22;47242;48.158;-1.586;2023-05-07T16:40:09;21.80;57.80
61374;DHT22;47242;48.158;-1.586;2023-05-07T16:42:35;21.80;57.70
61374;DHT22;47242;48.158;-1.586;2023-05-07T16:45:01;21.60;57.80
61374;DHT22;47242;48.158;-1.586;2023-05-07T16:47:29;21.50;58.30
61374;DHT22;47242;48.158;-1.586;2023-05-07T16:49:54;21.40;58.80
61374;DHT22;47242;48.158;-1.586;2023-05-07T16:52:20;21.30;58.80
61374;DHT22;47242;48.158;-1.586;2023-05-07T16:54:46;21.30;59.30
61374;DHT22;47242;48.158;-1.586;2023-05-07T16:57:12;21.40;59.60
61374;DHT22;47242;48.158;-1.586;2023-05-07T16:59:37;21.40;59.80
61374;DHT22;47242;48.158;-1.586;2023-05-07T17:02:03;21.40;59.70
61374;DHT22;47242;48.158;-1.586;2023-05-07T17:04:29;21.40;59.80
61374;DHT22;47242;48.158;-1.586;2023-05-07T17:06:57;21.40;59.70
61374;DHT22;47242;48.158;-1.586;2023-05-07T17:09:23;21.40;59.70
61374;DHT22;47242;48.158;-1.586;2023-05-07T17:11:48;21.40;59.60
61374;DHT22;47242;48.158;-1.586;2023-05-07T17:14:14;21.30;59.70
61374;DHT22;47242;48.158;-1.586;2023-05-07T17:16:40;21.30;59.70
61374;DHT22;47242;48.158;-1.586;2023-05-07T17:19:05;21.30;60.20
61374;DHT22;47242;48.158;-1.586;2023-05-07T17:21:31;21.30;60.00
61374;DHT22;47242;48.158;-1.586;2023-05-07T17:23:57;21.30;60.20
61374;DHT22;47242;48.158;-1.586;2023-05-07T17:26:22;21.40;59.90
61374;DHT22;47242;48.158;-1.586;2023-05-07T17:28:48;21.30;59.60
61374;DHT22;47242;48.158;-1.586;2023-05-07T17:31:17;21.30;60.00
61374;DHT22;47242;48.158;-1.586;2023-05-07T17:33:42;21.10;59.80
61374;DHT22;47242;48.158;-1.586;2023-05-07T17:36:08;21.00;59.50
61374;DHT22;47242;48.158;-1.586;2023-05-07T17:38:34;20.90;59.80
61374;DHT22;47242;48.158;-1.586;2023-05-07T17:41:00;20.90;60.00
61374;DHT22;47242;48.158;-1.586;2023-05-07T17:43:26;20.80;60.40
61374;DHT22;47242;48.158;-1.586;2023-05-07T17:45:52;20.80;60.30
61374;DHT22;47242;48.158;-1.586;2023-05-07T17:48:17;20.70;60.50
61374;DHT22;47242;48.158;-1.586;2023-05-07T17:51:07;20.50;60.50
61374;DHT22;47242;48.158;-1.586;2023-05-07T17:53:33;20.50;60.80
61374;DHT22;47242;48.158;-1.586;2023-05-07T17:55:59;20.40;61.00
61374;DHT22;47242;48.158;-1.586;2023-05-07T17:58:25;20.40;60.80
61374;DHT22;47242;48.158;-1.586;2023-05-07T18:00:53;20.30;60.90
61374;DHT22;47242;48.158;-1.586;2023-05-07T18:03:19;20.30;61.10
61374;DHT22;47242;48.158;-1.586;2023-05-07T18:05:45;20.20;61.60
61374;DHT22;47242;48.158;-1.586;2023-05-07T18:08:11;20.20;61.70
61374;DHT22;47242;48.158;-1.586;2023-05-07T18:10:37;20.10;61.70
61374;DHT22;47242;48.158;-1.586;2023-05-07T18:13:02;20.00;61.60
61374;DHT22;47242;48.158;-1.586;2023-05-07T18:15:28;19.90;61.50
61374;DHT22;47242;48.158;-1.586;2023-05-07T18:17:54;19.90;61.80
61374;DHT22;47242;48.158;-1.586;2023-05-07T18:20:20;19.90;62.00
61374;DHT22;47242;48.158;-1.586;2023-05-07T18:22:45;19.80;62.20
61374;DHT22;47242;48.158;-1.586;2023-05-07T18:25:11;19.80;62.20
61374;DHT22;47242;48.158;-1.586;2023-05-07T18:27:37;19.80;62.30
61374;DHT22;47242;48.158;-1.586;2023-05-07T18:30:08;19.70;62.50
61374;DHT22;47242;48.158;-1.586;2023-05-07T18:32:34;19.70;62.70
61374;DHT22;47242;48.158;-1.586;2023-05-07T18:35:00;19.70;62.70
61374;DHT22;47242;48.158;-1.586;2023-05-07T18:37:26;19.60;62.90
61374;DHT22;47242;48.158;-1.586;2023-05-07T18:39:51;19.60;63.00
61374;DHT22;47242;48.158;-1.586;2023-05-07T18:42:17;19.60;63.00
61374;DHT22;47242;48.158;-1.586;2023-05-07T18:44:43;19.50;63.00
61374;DHT22;47242;48.158;-1.586;2023-05-07T18:47:09;19.40;63.30
61374;DHT22;47242;48.158;-1.586;2023-05-07T18:49:35;19.40;63.40
61374;DHT22;47242;48.158;-1.586;2023-05-07T18:52:01;19.40;63.50
61374;DHT22;47242;48.158;-1.586;2023-05-07T18:54:27;19.30;63.70
61374;DHT22;47242;48.158;-1.586;2023-05-07T18:56:53;19.30;63.70
61374;DHT22;47242;48.158;-1.586;2023-05-07T18:59:18;19.20;63.70
61374;DHT22;47242;48.158;-1.586;2023-05-07T19:01:45;19.20;63.70
61374;DHT22;47242;48.158;-1.586;2023-05-07T19:04:11;19.20;64.00
61374;DHT22;47242;48.158;-1.586;2023-05-07T19:06:36;19.10;64.10
61374;DHT22;47242;48.158;-1.586;2023-05-07T19:09:02;19.00;64.10
61374;DHT22;47242;48.158;-1.586;2023-05-07T19:11:29;19.00;64.20
61374;DHT22;47242;48.158;-1.586;2023-05-07T19:13:55;18.90;64.20
61374;DHT22;47242;48.158;-1.586;2023-05-07T19:16:20;18.80;64.40
61374;DHT22;47242;48.158;-1.586;2023-05-07T19:18:46;18.80;64.50
61374;DHT22;47242;48.158;-1.586;2023-05-07T19:21:12;18.80;64.50
61374;DHT22;47242;48.158;-1.586;2023-05-07T19:23:38;18.70;64.50
61374;DHT22;47242;48.158;-1.586;2023-05-07T19:26:06;18.70;64.60
61374;DHT22;47242;48.158;-1.586;2023-05-07T19:28:33;18.70;64.70
61374;DHT22;47242;48.158;-1.586;2023-05-07T19:30:59;18.60;64.80
61374;DHT22;47242;48.158;-1.586;2023-05-07T19:33:24;18.60;64.80
61374;DHT22;47242;48.158;-1.586;2023-05-07T19:35:51;18.60;64.80
61374;DHT22;47242;48.158;-1.586;2023-05-07T19:38:18;18.50;64.70
61374;DHT22;47242;48.158;-1.586;2023-05-07T19:40:44;18.50;64.80
61374;DHT22;47242;48.158;-1.586;2023-05-07T19:43:10;18.40;65.00
61374;DHT22;47242;48.158;-1.586;2023-05-07T19:45:35;18.40;65.00
61374;DHT22;47242;48.158;-1.586;2023-05-07T19:48:02;18.40;64.90
61374;DHT22;47242;48.158;-1.586;2023-05-07T19:50:27;18.30;64.90
61374;DHT22;47242;48.158;-1.586;2023-05-07T19:52:53;18.30;65.00
61374;DHT22;47242;48.158;-1.586;2023-05-07T19:55:19;18.20;65.10
61374;DHT22;47242;48.158;-1.586;2023-05-07T19:57:44;18.10;65.20
61374;DHT22;47242;48.158;-1.586;2023-05-07T20:00:14;18.10;65.30
61374;DHT22;47242;48.158;-1.586;2023-05-07T20:02:40;18.00;65.40
61374;DHT22;47242;48.158;-1.586;2023-05-07T20:05:06;18.00;65.40
61374;DHT22;47242;48.158;-1.586;2023-05-07T20:07:32;18.00;65.20
61374;DHT22;47242;48.158;-1.586;2023-05-07T20:09:57;18.00;65.20